Latest Weather Observations for Sydney - Observatory Hill

IDN60901

Issued at 2:21 pm EST Sunday 5 April 2020 (issued every 10 minutes, with the page automatically refreshed every 10 minutes)

About weather observations | Map of Sydney area stations | Latest observations for Sydney area | Other Formats
Station Details ID: 066062 Name: SYDNEY (OBSERVATORY HILL) Lat: -33.86 Lon: 151.21 Height: 39.0 m
Data from the previous 72 hours. | See also: Recent months at Sydney - Observatory Hill

* Apparent temperature (App Temp) for Sydney - Observatory Hill is calculated using temperature observations collected at Sydney - Observatory Hill and wind observations collected at Fort Denison, as wind observations are not currently provided for Sydney - Observatory Hill.

Date/Time
EST
Temp
°C
App
Temp
°C
Dew
Point
°C
Rel
Hum
%
Delta-T
°C
Wind Press
QNH
hPa
Press
MSL
hPa
Rain since
9am
mm
Dir  Spd
km/h
Gust
km/h
Spd
kts
Gust
kts
05/02:00pm 24.8 19.1 5.1 28 10.0 WNW 24 - 13 - 1011.4 1011.3 0.0
05/01:30pm 24.0 18.1 3.9 27 9.9 WNW 24 - 13 - 1011.6 1011.5 0.0
05/01:00pm 24.2 19.8 4.6 28 9.8 W 17 - 9 - 1011.8 1011.7 0.0
05/12:30pm 23.8 19.0 5.7 31 9.2 NW 20 - 11 - 1012.2 1012.1 0.0
05/12:00pm 23.2 18.5 6.1 33 8.7 WNW 20 - 11 - 1012.7 1012.6 0.0
05/11:30am 22.2 17.2 4.7 32 8.6 WNW 20 - 11 - 1013.1 1013.0 0.0
05/11:00am 21.4 18.3 5.7 36 7.8 NW 11 - 6 - 1013.5 1013.4 0.0
05/10:30am 20.7 16.3 7.3 42 6.9 WNW 20 - 11 - 1013.6 1013.5 0.0
05/10:00am 19.5 14.2 5.2 39 7.0 WNW 22 - 12 - 1014.0 1013.9 0.0
05/09:30am 19.1 14.0 5.9 42 6.5 NW 22 - 12 - 1014.2 1014.1 0.0
05/09:00am 18.8 14.3 6.3 44 6.2 NW 19 - 10 - 1014.3 1014.2 0.0
05/08:30am 18.2 14.1 6.4 46 5.9 NW 17 - 9 - 1014.1 1014.0 0.0
05/08:00am 17.1 13.0 6.3 49 5.3 WNW 17 - 9 - 1014.4 1014.3 0.0
05/07:30am 16.3 12.5 5.9 50 5.0 NW 15 - 8 - 1014.0 1013.9 0.0
05/07:00am 15.1 12.0 7.2 59 3.9 WNW 13 - 7 - 1013.7 1013.6 0.0
05/06:30am 14.4 11.5 6.5 59 3.8 WNW 11 - 6 - 1013.3 1013.2 0.0
05/06:00am 14.5 11.2 6.6 59 3.8 WNW 13 - 7 - 1012.7 1012.6 0.0
05/05:30am 14.4 12.3 6.7 60 3.7 NW 7 - 4 - 1012.4 1012.3 0.0
05/05:00am 14.2 10.6 6.8 61 3.6 W 15 - 8 - 1012.0 1011.9 0.0
05/04:30am 14.7 11.0 6.5 58 4.0 W 15 - 8 - 1011.8 1011.7 0.0
05/04:00am 14.9 12.3 6.0 55 4.3 W 9 - 5 - 1011.6 1011.5 0.0
05/03:30am 15.4 13.3 5.9 53 4.6 WNW 6 - 3 - 1011.3 1011.2 0.0
05/03:00am 15.2 13.0 6.0 54 4.4 NNW 7 - 4 - 1011.1 1011.0 0.0
05/03:30am 15.7 13.4 5.6 51 4.8 W 7 - 4 - 1011.0 1010.9 0.0
05/03:00am 15.9 13.3 6.1 52 4.8 NW 9 - 5 - 1011.1 1011.0 0.0
05/02:30am 16.1 12.8 6.3 52 4.8 NW 13 - 7 - 1010.9 1010.8 0.0
05/02:00am 16.3 12.1 5.6 49 5.2 NNW 17 - 9 - 1010.8 1010.7 0.0
05/01:30am 16.6 13.9 5.6 48 5.3 NW 9 - 5 - 1010.7 1010.6 0.0
05/01:00am 17.1 12.5 5.4 46 5.6 NW 19 - 10 - 1010.4 1010.3 0.0
05/12:30am 17.5 13.2 5.4 45 5.9 NW 17 - 9 - 1010.3 1010.2 0.0
05/12:00am 18.0 14.5 5.6 44 6.1 NNW 13 - 7 - 1010.1 1010.0 0.0
 
Date/Time
EST
Temp
°C
App
Temp
°C
Dew
Point
°C
Rel
Hum
%
Delta-T
°C
Wind Press
QNH
hPa
Press
MSL
hPa
Rain since
9am
mm
Dir  Spd
km/h
Gust
km/h
Spd
kts
Gust
kts
04/11:30pm 18.0 13.2 5.6 44 6.0 NW 20 - 11 - 1009.8 1009.7 0.0
04/11:00pm 18.3 14.6 6.2 45 6.0 NW 15 - 8 - 1009.7 1009.6 0.0
04/10:30pm 18.4 15.3 5.6 43 6.3 NW 11 - 6 - 1009.5 1009.4 0.0
04/10:00pm 18.9 14.7 5.7 42 6.5 NW 17 - 9 - 1008.9 1008.8 0.0
04/09:30pm 19.2 15.0 5.6 41 6.7 NW 17 - 9 - 1008.7 1008.6 0.0
04/09:00pm 19.5 14.8 5.2 39 7.0 WNW 19 - 10 - 1007.7 1007.6 0.0
04/08:30pm 20.0 13.8 4.5 36 7.5 NW 26 - 14 - 1007.3 1007.2 0.0
04/08:00pm 20.5 13.1 4.1 34 7.9 NW 32 - 17 - 1006.3 1006.2 0.0
04/07:30pm 20.6 14.0 4.2 34 7.9 NW 28 - 15 - 1005.9 1005.8 0.0
04/07:00pm 21.1 15.3 4.6 34 8.1 NW 24 - 13 - 1005.2 1005.1 0.0
04/06:30pm 21.7 14.0 3.4 30 8.8 WNW 33 - 18 - 1004.5 1004.4 0.0
04/06:00pm 22.2 13.1 3.8 30 9.0 WNW 41 - 22 - 1003.5 1003.4 0.0
04/05:30pm 22.8 15.9 4.8 31 8.9 NW 30 - 16 - 1002.8 1002.7 0.0
04/05:00pm 23.5 15.7 4.9 30 9.3 WNW 35 - 19 - 1002.4 1002.3 0.0
04/04:30pm 24.0 17.3 3.9 27 9.9 WNW 28 - 15 - 1001.8 1001.7 0.0
04/04:00pm 24.3 17.0 4.6 28 9.9 W 32 - 17 - 1001.7 1001.6 0.0
04/03:30pm 24.2 15.7 5.1 29 9.6 WNW 39 - 21 - 1001.4 1001.3 0.0
04/03:00pm 24.4 17.2 5.2 29 9.7 WNW 32 - 17 - 1000.9 1000.8 0.0
04/02:30pm 24.6 16.5 5.4 29 9.7 NW 37 - 20 - 1000.6 1000.5 0.0
04/02:00pm 25.3 16.9 3.9 25 10.7 WNW 37 - 20 - 1000.0 999.9 0.0
04/01:30pm 26.0 17.0 7.1 30 10.0 WNW 44 - 24 - 999.6 999.5 0.0
04/01:00pm 26.0 17.3 7.6 31 9.9 WNW 43 - 23 - 999.4 999.3 0.0
04/12:30pm 25.9 17.4 8.4 33 9.4 WNW 43 - 23 - 999.3 999.2 0.0
04/12:00pm 25.2 20.1 13.1 47 7.1 NW 32 - 17 - 999.3 999.2 0.0
04/11:30am 24.2 20.6 13.1 50 6.4 NW 24 - 13 - 999.5 999.4 0.0
04/11:00am 23.4 20.9 14.1 56 5.5 NW 20 - 11 - 999.7 999.6 0.0
04/10:30am 22.1 19.7 15.5 66 3.9 NW 22 - 12 - 999.9 999.8 0.0
04/10:00am 21.0 18.4 15.8 72 3.1 NNW 24 - 13 - 999.8 999.7 0.0
04/09:30am 20.4 17.7 16.6 79 2.3 NNW 26 - 14 - 1000.0 999.9 0.0
04/09:00am 20.1 17.1 16.9 82 2.0 NNW 28 - 15 - 999.0 998.9 7.0
04/08:30am 19.8 17.0 17.4 86 1.5 N 28 - 15 - 998.4 998.3 7.0
04/08:00am 19.8 18.2 17.4 86 1.5 N 22 - 12 - 998.0 997.9 6.8
04/07:30am 20.0 17.3 17.6 86 1.5 N 28 - 15 - 997.6 997.5 6.2
04/07:00am 20.3 17.7 17.7 85 1.6 N 28 - 15 - 998.0 997.9 4.2
04/06:30am 20.6 18.5 17.2 81 2.1 N 24 - 13 - 997.6 997.5 2.4
04/06:00am 21.5 20.2 16.9 75 2.8 NNE 19 - 10 - 997.3 997.2 1.6
04/05:30am 21.0 20.1 16.8 77 2.6 NNE 17 - 9 - 997.5 997.4 1.6
04/05:00am 21.0 18.4 16.8 77 2.6 NNE 26 - 14 - 997.5 997.4 1.6
04/04:30am 20.8 18.6 17.0 79 2.3 NNE 24 - 13 - 997.2 997.1 1.6
04/04:00am 20.8 19.4 17.0 79 2.3 NNE 20 - 11 - 998.1 998.0 1.6
04/03:30am 20.8 19.6 17.0 79 2.3 NNE 19 - 10 - 998.8 998.7 1.6
04/03:00am 20.7 19.4 17.3 81 2.1 NNE 20 - 11 - 999.2 999.1 1.6
04/02:30am 20.3 20.7 17.3 83 1.8 NE 11 - 6 - 1000.0 999.9 1.6
04/02:00am 20.6 19.9 17.4 82 2.0 NNE 17 - 9 - 1000.5 1000.4 1.6
04/01:30am 20.8 19.8 17.6 82 2.0 NNE 19 - 10 - 1000.7 1000.6 1.6
04/01:00am 20.7 19.6 17.7 83 1.9 NNE 20 - 11 - 1001.2 1001.1 1.6
04/12:30am 20.6 19.2 18.0 85 1.6 NNE 22 - 12 - 1001.8 1001.7 1.6
04/12:00am 20.6 19.9 18.2 86 1.5 NNE 19 - 10 - 1002.3 1002.2 1.6
 
Date/Time
EST
Temp
°C
App
Temp
°C
Dew
Point
°C
Rel
Hum
%
Delta-T
°C
Wind Press
QNH
hPa
Press
MSL
hPa
Rain since
9am
mm
Dir  Spd
km/h
Gust
km/h
Spd
kts
Gust
kts
03/11:30pm 20.6 20.0 18.4 87 1.4 NNE 19 - 10 - 1003.0 1002.9 1.6
03/11:00pm 20.6 20.0 18.4 87 1.4 NNE 19 - 10 - 1003.4 1003.3 1.6
03/10:30pm 20.8 20.1 18.6 87 1.4 NNE 20 - 11 - 1003.8 1003.7 1.6
03/10:00pm 20.5 19.9 18.4 88 1.3 NNE 19 - 10 - 1003.8 1003.7 1.6
03/09:30pm 20.5 19.9 18.4 88 1.3 NE 19 - 10 - 1004.0 1003.9 1.6
03/09:00pm 20.5 19.9 18.4 88 1.3 NNE 19 - 10 - 1004.3 1004.2 1.6
03/08:30pm 20.5 19.6 18.3 87 1.4 NNE 20 - 11 - 1004.6 1004.5 1.6
03/08:00pm 20.7 20.0 18.3 86 1.5 NNE 19 - 10 - 1004.4 1004.3 1.2
03/07:30pm 20.8 20.5 18.2 85 1.6 NNE 17 - 9 - 1004.6 1004.5 1.0
03/07:00pm 21.0 21.1 18.4 85 1.6 NE 15 - 8 - 1004.9 1004.8 0.8
03/06:30pm 21.3 21.5 18.5 84 1.8 NE 15 - 8 - 1005.1 1005.0 0.6
03/06:00pm 21.7 22.0 17.9 79 2.4 NE 13 - 7 - 1005.2 1005.1 0.2
03/05:30pm 22.0 22.2 17.6 76 2.7 NNE 13 - 7 - 1005.1 1005.0 0.2
03/05:00pm 22.8 23.0 17.7 73 3.2 NE 13 - 7 - 1005.2 1005.1 0.2
03/04:30pm 24.0 23.5 17.0 65 4.3 NE 15 - 8 - 1005.7 1005.6 0.2
03/04:00pm 25.0 24.9 17.0 61 5.0 NE 13 - 7 - 1005.9 1005.8 0.2
03/03:30pm 24.6 24.4 16.6 61 4.9 NE 13 - 7 - 1006.2 1006.1 0.2
03/03:00pm 24.9 23.8 16.3 59 5.3 E 17 - 9 - 1006.3 1006.2 0.0
03/02:30pm 24.4 25.2 17.4 65 4.4 ENE 9 - 5 - 1007.0 1006.9 0.0
03/02:00pm 23.8 24.5 17.1 66 4.2 E 9 - 5 - 1007.5 1007.4 0.0
03/01:30pm 23.0 24.1 17.2 70 3.6 ENE 7 - 4 - 1008.0 1007.9 0.0
03/01:00pm 23.0 23.0 17.2 70 3.6 ENE 13 - 7 - 1009.0 1008.9 0.0
03/12:30pm 23.1 23.5 16.2 65 4.2 E 9 - 5 - 1009.3 1009.2 0.0
03/12:00pm 23.8 24.7 16.6 64 4.4 ENE 7 - 4 - 1010.0 1009.9 0.0
03/11:30am 23.4 24.1 16.2 64 4.4 ENE 7 - 4 - 1009.8 1009.7 0.0
03/11:00am 24.2 25.3 17.0 64 4.5 E 7 - 4 - 1009.9 1009.8 0.0
03/10:30am 23.8 24.6 15.8 61 4.8 E 6 - 3 - 1010.0 1009.9 0.0
03/10:00am 23.5 24.5 16.3 64 4.4 ESE 6 - 3 - 1009.9 1009.8 0.0
03/09:30am 21.8 22.8 15.4 67 3.8 ESE 4 - 2 - 1010.4 1010.3 0.0
03/09:00am 21.2 21.9 15.5 70 3.4 ESE 6 - 3 - 1010.4 1010.3 4.2
03/08:30am 19.4 20.1 16.2 82 1.9 SE 7 - 4 - 1010.0 1009.9 4.2
03/08:00am 18.2 19.7 15.8 86 1.4 E 2 - 1 - 1010.2 1010.1 4.2
03/07:30am 18.1 18.8 15.7 86 1.4 NW 6 - 3 - 1009.8 1009.7 4.2
03/07:00am 18.0 18.1 15.4 85 1.5 W 9 - 5 - 1009.7 1009.6 4.2
03/06:30am 17.8 16.7 15.4 86 1.4 W 15 - 8 - 1009.6 1009.5 4.2
03/06:00am 17.9 19.4 15.7 87 1.3 N 2 - 1 - 1009.3 1009.2 4.2
03/05:30am 17.9 19.3 15.5 86 1.4 N 2 - 1 - 1009.0 1008.9 4.2
03/05:00am 18.1 19.6 15.7 86 1.4 N 2 - 1 - 1009.1 1009.0 4.2
03/04:30am 18.3 19.1 15.9 86 1.4 NNW 6 - 3 - 1009.1 1009.0 4.2
03/04:00am 18.5 19.3 15.9 85 1.5 N 6 - 3 - 1009.4 1009.3 4.2
03/03:30am 18.8 20.1 16.2 85 1.6 WNW 4 - 2 - 1009.4 1009.3 4.2
03/03:00am 18.7 19.5 15.8 83 1.7 WSW 6 - 3 - 1009.5 1009.4 4.2
03/02:30am 18.9 19.5 15.8 82 1.8 WNW 7 - 4 - 1009.7 1009.6 4.2
03/02:00am 19.2 18.8 16.1 82 1.9 W 13 - 7 - 1009.9 1009.8 4.2
03/01:30am 19.4 19.0 16.2 82 1.9 W 13 - 7 - 1010.0 1009.9 4.2
03/01:00am 19.5 19.2 16.5 83 1.8 WNW 13 - 7 - 1009.9 1009.8 4.2
03/12:30am 19.6 19.0 16.6 83 1.8 NW 15 - 8 - 1010.1 1010.0 4.2
03/12:00am 19.6 18.2 16.6 83 1.8 NNW 19 - 10 - 1010.2 1010.1 4.2
 
Date/Time
EST
Temp
°C
App
Temp
°C
Dew
Point
°C
Rel
Hum
%
Delta-T
°C
Wind Press
QNH
hPa
Press
MSL
hPa
Rain since
9am
mm
Dir  Spd
km/h
Gust
km/h
Spd
kts
Gust
kts
02/11:30pm 19.7 18.8 16.9 84 1.7 NW 17 - 9 - 1010.5 1010.4 4.2
02/11:00pm 19.9 19.1 17.1 84 1.7 NNW 17 - 9 - 1010.7 1010.6 4.2
02/10:30pm 19.9 18.7 17.1 84 1.7 NNW 19 - 10 - 1010.6 1010.5 4.2
02/10:00pm 20.0 18.8 17.4 85 1.6 NNW 20 - 11 - 1010.6 1010.5 4.2
02/09:30pm 19.9 18.6 17.3 85 1.6 N 20 - 11 - 1010.7 1010.6 4.2
02/09:00pm 20.0 19.3 17.4 85 1.6 N 17 - 9 - 1010.9 1010.8 4.2
02/08:30pm 20.3 19.8 17.7 85 1.6 NNE 17 - 9 - 1010.8 1010.7 4.2
02/08:00pm 20.6 20.9 17.8 84 1.7 NNE 13 - 7 - 1010.5 1010.4 4.0
02/07:30pm 20.8 21.5 18.0 84 1.7 NNE 11 - 6 - 1010.6 1010.5 3.8
02/07:00pm 21.0 21.4 18.2 84 1.7 NNE 13 - 7 - 1010.9 1010.8 3.8
02/06:30pm 21.1 22.1 18.7 86 1.5 NNE 11 - 6 - 1010.8 1010.7 3.4
02/06:00pm 21.3 22.8 19.0 87 1.5 NE 9 - 5 - 1011.0 1010.9 3.4
02/05:30pm 21.1 23.1 18.7 86 1.5 NE 6 - 3 - 1011.2 1011.1 3.2
02/05:00pm 21.1 23.0 18.5 85 1.6 NNE 6 - 3 - 1011.2 1011.1 2.4
02/04:30pm 21.2 22.4 18.2 83 1.9 NE 9 - 5 - 1011.3 1011.2 1.8
02/04:00pm 21.5 22.6 17.9 80 2.2 ENE 9 - 5 - 1011.2 1011.1 0.6
02/03:30pm 22.0 23.3 17.6 76 2.7 NNE 7 - 4 - 1011.7 1011.6 0.2

Latest Capital City Observations: Canberra | Sydney | Melbourne | Brisbane | Adelaide | Perth | Hobart | Darwin

Other formats

Comma delimited format used in spreadsheet applications
http://www.bom.gov.au/fwo/IDN60901/IDN60901.94768.axf

JavaScript Object Notation format (JSON) in row-major order
http://www.bom.gov.au/fwo/IDN60901/IDN60901.94768.json

Data quality

Most of these data are generated automatically and are frequently updated. Quality checks on data are not normally performed. It is possible for incorrect values to appear. Refer to information at About Latest Weather Observations and please check the disclaimer before using these data.